sensor_id;sensor_type;location;lat;lon;timestamp;pressure;altitude;pressure_sealevel;temperature;humidity
50226;BME280;36113;50.742;6.432;2023-07-28T00:00:34;97882.25;;;15.87;87.33
50226;BME280;36113;50.742;6.432;2023-07-28T00:02:59;97892.09;;;15.88;87.75
50226;BME280;36113;50.742;6.432;2023-07-28T00:05:25;97890.63;;;15.90;87.34
50226;BME280;36113;50.742;6.432;2023-07-28T00:07:50;97894.31;;;15.95;87.29
50226;BME280;36113;50.742;6.432;2023-07-28T00:10:16;97898.81;;;15.99;87.18
50226;BME280;36113;50.742;6.432;2023-07-28T00:12:41;97865.69;;;15.75;87.50
50226;BME280;36113;50.742;6.432;2023-07-28T00:15:06;97897.38;;;15.93;87.76
50226;BME280;36113;50.742;6.432;2023-07-28T00:17:32;97896.25;;;15.94;87.58
50226;BME280;36113;50.742;6.432;2023-07-28T00:19:57;97867.59;;;15.83;87.76
50226;BME280;36113;50.742;6.432;2023-07-28T00:22:22;97873.06;;;15.83;87.61
50226;BME280;36113;50.742;6.432;2023-07-28T00:24:48;97870.78;;;15.85;87.40
50226;BME280;36113;50.742;6.432;2023-07-28T00:27:13;97905.38;;;16.07;87.41
50226;BME280;36113;50.742;6.432;2023-07-28T00:29:40;97903.63;;;16.02;87.60
50226;BME280;36113;50.742;6.432;2023-07-28T00:32:06;97882.69;;;15.98;87.56
50226;BME280;36113;50.742;6.432;2023-07-28T00:34:32;97889.28;;;16.05;87.97
50226;BME280;36113;50.742;6.432;2023-07-28T00:36:57;97866.44;;;15.92;88.05
50226;BME280;36113;50.742;6.432;2023-07-28T00:39:22;97862.72;;;15.88;87.90
50226;BME280;36113;50.742;6.432;2023-07-28T00:41:48;97899.59;;;16.00;87.55
50226;BME280;36113;50.742;6.432;2023-07-28T00:44:13;97879.13;;;15.97;87.59
50226;BME280;36113;50.742;6.432;2023-07-28T00:46:40;97889.16;;;15.93;87.85
50226;BME280;36113;50.742;6.432;2023-07-28T00:49:05;97883.34;;;15.95;88.01
50226;BME280;36113;50.742;6.432;2023-07-28T00:51:31;97890.38;;;16.04;87.75
50226;BME280;36113;50.742;6.432;2023-07-28T00:53:57;97848.88;;;15.85;87.67
50226;BME280;36113;50.742;6.432;2023-07-28T00:56:24;97839.22;;;15.87;87.54
50226;BME280;36113;50.742;6.432;2023-07-28T00:58:50;97837.75;;;15.90;87.14
50226;BME280;36113;50.742;6.432;2023-07-28T01:01:16;97870.56;;;16.07;87.28
50226;BME280;36113;50.742;6.432;2023-07-28T01:03:42;97822.19;;;15.73;87.32
50226;BME280;36113;50.742;6.432;2023-07-28T01:08:47;97871.00;;;16.09;87.81
50226;BME280;36113;50.742;6.432;2023-07-28T01:11:14;97870.41;;;16.04;88.09
50226;BME280;36113;50.742;6.432;2023-07-28T01:13:40;97885.38;;;16.06;87.73
50226;BME280;36113;50.742;6.432;2023-07-28T01:16:06;97880.22;;;16.05;88.11
50226;BME280;36113;50.742;6.432;2023-07-28T01:18:32;97883.91;;;16.09;87.87
50226;BME280;36113;50.742;6.432;2023-07-28T01:20:57;97886.00;;;16.12;88.09
50226;BME280;36113;50.742;6.432;2023-07-28T01:23:41;97881.63;;;16.11;88.27
50226;BME280;36113;50.742;6.432;2023-07-28T01:26:10;97893.88;;;16.13;88.25
50226;BME280;36113;50.742;6.432;2023-07-28T01:28:37;97888.22;;;16.19;88.07
50226;BME280;36113;50.742;6.432;2023-07-28T01:31:06;97890.50;;;16.17;88.43
50226;BME280;36113;50.742;6.432;2023-07-28T01:33:31;97894.03;;;16.17;88.00
50226;BME280;36113;50.742;6.432;2023-07-28T01:35:57;97878.59;;;16.12;88.16
50226;BME280;36113;50.742;6.432;2023-07-28T01:38:24;97888.06;;;16.15;88.58
50226;BME280;36113;50.742;6.432;2023-07-28T01:40:49;97870.69;;;16.11;88.62
50226;BME280;36113;50.742;6.432;2023-07-28T01:43:14;97874.22;;;16.11;88.39
50226;BME280;36113;50.742;6.432;2023-07-28T01:45:40;97872.16;;;16.08;88.02
50226;BME280;36113;50.742;6.432;2023-07-28T01:48:05;97874.84;;;16.17;88.09
50226;BME280;36113;50.742;6.432;2023-07-28T01:50:31;97872.41;;;16.16;88.31
50226;BME280;36113;50.742;6.432;2023-07-28T01:52:56;97870.47;;;16.16;88.31
50226;BME280;36113;50.742;6.432;2023-07-28T01:55:22;97876.44;;;16.18;88.05
50226;BME280;36113;50.742;6.432;2023-07-28T01:58:00;97870.63;;;16.20;88.06
50226;BME280;36113;50.742;6.432;2023-07-28T02:00:26;97883.03;;;16.26;88.16
50226;BME280;36113;50.742;6.432;2023-07-28T02:02:52;97883.81;;;16.26;88.09
50226;BME280;36113;50.742;6.432;2023-07-28T02:05:18;97835.75;;;15.99;88.18
50226;BME280;36113;50.742;6.432;2023-07-28T02:07:44;97852.00;;;16.04;88.25
50226;BME280;36113;50.742;6.432;2023-07-28T02:10:09;97879.34;;;16.22;88.13
50226;BME280;36113;50.742;6.432;2023-07-28T02:12:39;97873.06;;;16.21;88.45
50226;BME280;36113;50.742;6.432;2023-07-28T02:15:07;97876.75;;;16.25;88.65
50226;BME280;36113;50.742;6.432;2023-07-28T02:17:33;97876.59;;;16.22;88.59
50226;BME280;36113;50.742;6.432;2023-07-28T02:19:58;97850.88;;;16.05;88.84
50226;BME280;36113;50.742;6.432;2023-07-28T02:22:23;97873.69;;;16.18;88.88
50226;BME280;36113;50.742;6.432;2023-07-28T02:24:49;97854.16;;;15.99;88.52
50226;BME280;36113;50.742;6.432;2023-07-28T02:27:14;97882.06;;;16.22;88.81
50226;BME280;36113;50.742;6.432;2023-07-28T02:29:39;97874.16;;;16.20;88.51
50226;BME280;36113;50.742;6.432;2023-07-28T02:32:05;97872.69;;;16.23;88.41
50226;BME280;36113;50.742;6.432;2023-07-28T02:34:31;97864.47;;;16.23;88.24
50226;BME280;36113;50.742;6.432;2023-07-28T02:36:57;97846.47;;;16.13;88.08
50226;BME280;36113;50.742;6.432;2023-07-28T02:39:22;97821.44;;;15.93;88.44
50226;BME280;36113;50.742;6.432;2023-07-28T02:41:47;97856.44;;;16.18;88.19
50226;BME280;36113;50.742;6.432;2023-07-28T02:44:13;97818.38;;;15.95;88.01
50226;BME280;36113;50.742;6.432;2023-07-28T02:46:38;97873.78;;;16.30;88.12
50226;BME280;36113;50.742;6.432;2023-07-28T02:49:03;97859.66;;;16.20;87.91
50226;BME280;36113;50.742;6.432;2023-07-28T02:51:30;97829.75;;;16.06;88.10
50226;BME280;36113;50.742;6.432;2023-07-28T02:53:55;97882.81;;;16.31;88.38
50226;BME280;36113;50.742;6.432;2023-07-28T02:56:20;97878.47;;;16.30;87.88
50226;BME280;36113;50.742;6.432;2023-07-28T02:58:47;97885.72;;;16.34;88.08
50226;BME280;36113;50.742;6.432;2023-07-28T03:01:13;97875.88;;;16.33;87.70
50226;BME280;36113;50.742;6.432;2023-07-28T03:03:38;97877.81;;;16.33;88.02
50226;BME280;36113;50.742;6.432;2023-07-28T03:06:04;97882.19;;;16.34;87.66
50226;BME280;36113;50.742;6.432;2023-07-28T03:08:29;97868.03;;;16.23;87.57
50226;BME280;36113;50.742;6.432;2023-07-28T03:10:58;97875.59;;;16.26;87.67
50226;BME280;36113;50.742;6.432;2023-07-28T03:13:23;97817.56;;;15.95;87.45
50226;BME280;36113;50.742;6.432;2023-07-28T03:15:49;97890.53;;;16.38;87.71
50226;BME280;36113;50.742;6.432;2023-07-28T03:18:14;97889.41;;;16.39;87.39
50226;BME280;36113;50.742;6.432;2023-07-28T03:20:39;97870.78;;;16.23;87.81
50226;BME280;36113;50.742;6.432;2023-07-28T03:23:05;97865.94;;;16.20;88.09
50226;BME280;36113;50.742;6.432;2023-07-28T03:25:30;97907.13;;;16.41;87.80
50226;BME280;36113;50.742;6.432;2023-07-28T03:27:55;97862.72;;;16.18;87.78
50226;BME280;36113;50.742;6.432;2023-07-28T03:30:20;97907.13;;;16.41;88.12
50226;BME280;36113;50.742;6.432;2023-07-28T03:32:46;97831.59;;;15.93;88.17
50226;BME280;36113;50.742;6.432;2023-07-28T03:35:11;97904.06;;;16.43;88.03
50226;BME280;36113;50.742;6.432;2023-07-28T03:37:36;97909.19;;;16.44;87.83
50226;BME280;36113;50.742;6.432;2023-07-28T03:40:02;97894.53;;;16.40;87.74
50226;BME280;36113;50.742;6.432;2023-07-28T03:42:27;97895.50;;;16.44;87.94
50226;BME280;36113;50.742;6.432;2023-07-28T03:44:53;97868.63;;;16.29;87.96
50226;BME280;36113;50.742;6.432;2023-07-28T03:47:19;97892.28;;;16.42;87.59
50226;BME280;36113;50.742;6.432;2023-07-28T03:49:44;97887.47;;;16.39;87.88
50226;BME280;36113;50.742;6.432;2023-07-28T03:52:09;97895.69;;;16.39;87.93
50226;BME280;36113;50.742;6.432;2023-07-28T03:54:35;97894.59;;;16.31;88.15
50226;BME280;36113;50.742;6.432;2023-07-28T03:57:00;97913.41;;;16.42;88.26
50226;BME280;36113;50.742;6.432;2023-07-28T03:59:25;97879.00;;;16.23;87.82
50226;BME280;36113;50.742;6.432;2023-07-28T04:01:51;97875.78;;;16.21;88.29
50226;BME280;36113;50.742;6.432;2023-07-28T04:04:17;97881.41;;;16.25;88.32
50226;BME280;36113;50.742;6.432;2023-07-28T04:06:45;97879.34;;;16.22;88.27
50226;BME280;36113;50.742;6.432;2023-07-28T04:09:12;97901.66;;;16.41;88.07
50226;BME280;36113;50.742;6.432;2023-07-28T04:11:38;97907.13;;;16.41;88.04
50226;BME280;36113;50.742;6.432;2023-07-28T04:14:04;97905.03;;;16.38;87.87
50226;BME280;36113;50.742;6.432;2023-07-28T04:16:29;97897.69;;;16.30;88.06
50226;BME280;36113;50.742;6.432;2023-07-28T04:18:54;97880.59;;;16.24;88.25
50226;BME280;36113;50.742;6.432;2023-07-28T04:21:20;97868.22;;;16.18;88.05
50226;BME280;36113;50.742;6.432;2023-07-28T04:23:45;97905.19;;;16.42;87.88
50226;BME280;36113;50.742;6.432;2023-07-28T04:26:11;97918.59;;;16.43;88.19
50226;BME280;36113;50.742;6.432;2023-07-28T04:28:36;97903.91;;;16.39;87.96
50226;BME280;36113;50.742;6.432;2023-07-28T04:31:01;97919.06;;;16.45;87.94
50226;BME280;36113;50.742;6.432;2023-07-28T04:33:26;97911.63;;;16.46;87.93
50226;BME280;36113;50.742;6.432;2023-07-28T04:35:52;97914.03;;;16.47;88.18
50226;BME280;36113;50.742;6.432;2023-07-28T04:38:17;97912.09;;;16.48;88.04
50226;BME280;36113;50.742;6.432;2023-07-28T04:40:43;97910.00;;;16.45;88.18
50226;BME280;36113;50.742;6.432;2023-07-28T04:43:09;97904.59;;;16.36;88.00
50226;BME280;36113;50.742;6.432;2023-07-28T04:45:34;97897.00;;;16.33;88.60
50226;BME280;36113;50.742;6.432;2023-07-28T04:47:59;97933.84;;;16.53;88.58
50226;BME280;36113;50.742;6.432;2023-07-28T04:50:25;97916.31;;;16.45;88.55
50226;BME280;36113;50.742;6.432;2023-07-28T04:52:50;97890.56;;;16.29;88.49
50226;BME280;36113;50.742;6.432;2023-07-28T04:55:15;97934.47;;;16.59;88.30
50226;BME280;36113;50.742;6.432;2023-07-28T04:57:41;97900.03;;;16.40;88.15
50226;BME280;36113;50.742;6.432;2023-07-28T05:00:07;97900.69;;;16.37;88.28
50226;BME280;36113;50.742;6.432;2023-07-28T05:02:33;97918.84;;;16.50;88.35
50226;BME280;36113;50.742;6.432;2023-07-28T05:04:59;97945.72;;;16.66;88.28
50226;BME280;36113;50.742;6.432;2023-07-28T05:07:24;97940.44;;;16.61;88.45
50226;BME280;36113;50.742;6.432;2023-07-28T05:09:49;97948.44;;;16.66;88.00
50226;BME280;36113;50.742;6.432;2023-07-28T05:12:15;97958.28;;;16.67;88.09
50226;BME280;36113;50.742;6.432;2023-07-28T05:14:40;97926.75;;;16.52;87.95
50226;BME280;36113;50.742;6.432;2023-07-28T05:17:05;97955.69;;;16.70;87.81
50226;BME280;36113;50.742;6.432;2023-07-28T05:19:31;97950.53;;;16.69;88.08
50226;BME280;36113;50.742;6.432;2023-07-28T05:21:57;97951.94;;;16.75;87.86
50226;BME280;36113;50.742;6.432;2023-07-28T05:24:22;97943.22;;;16.73;87.83
50226;BME280;36113;50.742;6.432;2023-07-28T05:26:47;97956.94;;;16.82;88.12
50226;BME280;36113;50.742;6.432;2023-07-28T05:29:13;97931.78;;;16.71;87.52
50226;BME280;36113;50.742;6.432;2023-07-28T05:31:38;97966.06;;;16.94;87.64
50226;BME280;36113;50.742;6.432;2023-07-28T05:34:04;97960.56;;;16.94;87.46
50226;BME280;36113;50.742;6.432;2023-07-28T05:36:29;97970.53;;;16.99;87.50
50226;BME280;36113;50.742;6.432;2023-07-28T05:38:54;97965.84;;;17.00;87.33
50226;BME280;36113;50.742;6.432;2023-07-28T05:41:22;97948.16;;;16.88;87.22
50226;BME280;36113;50.742;6.432;2023-07-28T05:43:48;97968.59;;;17.00;87.00
50226;BME280;36113;50.742;6.432;2023-07-28T05:46:14;97946.91;;;16.86;87.38
50226;BME280;36113;50.742;6.432;2023-07-28T05:48:39;97946.38;;;16.92;87.13
50226;BME280;36113;50.742;6.432;2023-07-28T05:51:04;97951.31;;;16.99;86.83
50226;BME280;36113;50.742;6.432;2023-07-28T05:53:30;97966.72;;;17.12;86.29
50226;BME280;36113;50.742;6.432;2023-07-28T05:55:55;97974.91;;;17.21;86.39
50226;BME280;36113;50.742;6.432;2023-07-28T05:58:20;97977.31;;;17.23;86.03
50226;BME280;36113;50.742;6.432;2023-07-28T06:00:46;97986.47;;;17.27;85.94
50226;BME280;36113;50.742;6.432;2023-07-28T06:03:11;97984.41;;;17.24;85.74
50226;BME280;36113;50.742;6.432;2023-07-28T06:05:40;97953.31;;;17.11;85.75
50226;BME280;36113;50.742;6.432;2023-07-28T06:08:06;97988.50;;;17.38;85.97
50226;BME280;36113;50.742;6.432;2023-07-28T06:10:31;97959.22;;;17.22;85.87
50226;BME280;36113;50.742;6.432;2023-07-28T06:12:57;97961.41;;;17.28;85.82
50226;BME280;36113;50.742;6.432;2023-07-28T06:15:22;97925.53;;;17.12;85.80
50226;BME280;36113;50.742;6.432;2023-07-28T06:17:48;97986.25;;;17.53;85.20
50226;BME280;36113;50.742;6.432;2023-07-28T06:20:14;97951.50;;;17.36;85.38
50226;BME280;36113;50.742;6.432;2023-07-28T06:22:39;97989.72;;;17.62;84.73
50226;BME280;36113;50.742;6.432;2023-07-28T06:25:04;97990.88;;;17.61;84.92
50226;BME280;36113;50.742;6.432;2023-07-28T06:27:30;97953.97;;;17.50;84.44
50226;BME280;36113;50.742;6.432;2023-07-28T06:29:55;97996.78;;;17.84;84.75
50226;BME280;36113;50.742;6.432;2023-07-28T06:32:21;97998.09;;;17.87;83.73
50226;BME280;36113;50.742;6.432;2023-07-28T06:34:48;98001.97;;;17.86;83.73
50226;BME280;36113;50.742;6.432;2023-07-28T06:37:14;98007.59;;;17.89;83.81
50226;BME280;36113;50.742;6.432;2023-07-28T06:39:39;98005.97;;;17.88;83.67
50226;BME280;36113;50.742;6.432;2023-07-28T06:42:06;98009.19;;;17.90;83.38
50226;BME280;36113;50.742;6.432;2023-07-28T06:44:31;98007.84;;;17.96;83.83
50226;BME280;36113;50.742;6.432;2023-07-28T06:46:57;98013.25;;;18.05;83.22
50226;BME280;36113;50.742;6.432;2023-07-28T06:49:22;97987.91;;;17.99;83.30
50226;BME280;36113;50.742;6.432;2023-07-28T06:51:47;98021.19;;;18.19;82.84
50226;BME280;36113;50.742;6.432;2023-07-28T06:54:13;98018.66;;;18.14;82.51
50226;BME280;36113;50.742;6.432;2023-07-28T06:56:39;98000.38;;;17.97;82.45
50226;BME280;36113;50.742;6.432;2023-07-28T06:59:05;98025.28;;;18.13;82.70
50226;BME280;36113;50.742;6.432;2023-07-28T07:01:31;98011.72;;;17.95;82.24
50226;BME280;36113;50.742;6.432;2023-07-28T07:03:57;98019.31;;;17.98;82.44
50226;BME280;36113;50.742;6.432;2023-07-28T07:06:22;98030.56;;;18.06;82.16
50226;BME280;36113;50.742;6.432;2023-07-28T07:08:47;98014.13;;;17.97;82.05
50226;BME280;36113;50.742;6.432;2023-07-28T07:11:13;98047.66;;;18.24;81.99
50226;BME280;36113;50.742;6.432;2023-07-28T07:13:38;98043.56;;;18.30;81.98
50226;BME280;36113;50.742;6.432;2023-07-28T07:16:04;98049.53;;;18.44;81.48
50226;BME280;36113;50.742;6.432;2023-07-28T07:18:29;98041.41;;;18.48;81.43
50226;BME280;36113;50.742;6.432;2023-07-28T07:20:54;98046.81;;;18.56;81.28
50226;BME280;36113;50.742;6.432;2023-07-28T07:23:20;98040.50;;;18.56;80.63
50226;BME280;36113;50.742;6.432;2023-07-28T07:25:45;98054.03;;;18.73;80.62
50226;BME280;36113;50.742;6.432;2023-07-28T07:28:10;98033.06;;;18.69;80.09
50226;BME280;36113;50.742;6.432;2023-07-28T07:30:35;98059.09;;;18.84;80.08
50226;BME280;36113;50.742;6.432;2023-07-28T07:33:01;98061.66;;;18.89;80.02
50226;BME280;36113;50.742;6.432;2023-07-28T07:35:26;98057.16;;;18.96;80.23
50226;BME280;36113;50.742;6.432;2023-07-28T07:37:51;98037.66;;;18.89;79.71
50226;BME280;36113;50.742;6.432;2023-07-28T07:40:17;98062.75;;;19.12;79.59
50226;BME280;36113;50.742;6.432;2023-07-28T07:42:46;97993.84;;;18.84;78.61
50226;BME280;36113;50.742;6.432;2023-07-28T07:45:13;98014.13;;;19.04;78.69
50226;BME280;36113;50.742;6.432;2023-07-28T07:47:42;98034.03;;;19.26;78.35
50226;BME280;36113;50.742;6.432;2023-07-28T07:50:09;98068.66;;;19.51;77.69
50226;BME280;36113;50.742;6.432;2023-07-28T07:52:35;98063.56;;;19.65;77.96
50226;BME280;36113;50.742;6.432;2023-07-28T07:55:02;98065.50;;;19.77;76.78
50226;BME280;36113;50.742;6.432;2023-07-28T07:57:27;98045.31;;;19.73;77.08
50226;BME280;36113;50.742;6.432;2023-07-28T07:59:53;98053.91;;;19.72;76.46
50226;BME280;36113;50.742;6.432;2023-07-28T08:02:18;98080.97;;;20.10;76.11
50226;BME280;36113;50.742;6.432;2023-07-28T08:04:44;98071.88;;;20.38;75.54
50226;BME280;36113;50.742;6.432;2023-07-28T08:07:09;98085.66;;;20.66;75.00
50226;BME280;36113;50.742;6.432;2023-07-28T08:09:34;98075.50;;;20.70;73.87
50226;BME280;36113;50.742;6.432;2023-07-28T08:12:00;98072.63;;;20.82;72.63
50226;BME280;36113;50.742;6.432;2023-07-28T08:14:25;98059.22;;;21.00;71.87
50226;BME280;36113;50.742;6.432;2023-07-28T08:16:51;98067.00;;;21.46;71.44
50226;BME280;36113;50.742;6.432;2023-07-28T08:19:16;98067.63;;;21.75;70.88
50226;BME280;36113;50.742;6.432;2023-07-28T08:21:41;98061.56;;;21.88;69.08
50226;BME280;36113;50.742;6.432;2023-07-28T08:24:07;98064.53;;;21.99;68.89
50226;BME280;36113;50.742;6.432;2023-07-28T08:26:33;98069.88;;;22.27;68.02
50226;BME280;36113;50.742;6.432;2023-07-28T08:28:58;98022.00;;;22.07;68.10
50226;BME280;36113;50.742;6.432;2023-07-28T08:31:23;98066.78;;;22.13;67.94
50226;BME280;36113;50.742;6.432;2023-07-28T08:33:49;98070.88;;;22.00;67.52
50226;BME280;36113;50.742;6.432;2023-07-28T08:36:14;98070.44;;;21.98;67.88
50226;BME280;36113;50.742;6.432;2023-07-28T08:38:39;98060.69;;;21.84;67.43
50226;BME280;36113;50.742;6.432;2023-07-28T08:41:04;98089.59;;;22.06;67.08
50226;BME280;36113;50.742;6.432;2023-07-28T08:43:31;98094.97;;;22.38;67.48
50226;BME280;36113;50.742;6.432;2023-07-28T08:45:56;98083.94;;;22.42;65.64
50226;BME280;36113;50.742;6.432;2023-07-28T08:48:23;98092.84;;;22.31;65.93
50226;BME280;36113;50.742;6.432;2023-07-28T08:50:48;98092.00;;;22.27;67.17
50226;BME280;36113;50.742;6.432;2023-07-28T08:53:14;98098.53;;;22.39;66.95
50226;BME280;36113;50.742;6.432;2023-07-28T08:55:39;98087.47;;;22.39;66.56
50226;BME280;36113;50.742;6.432;2023-07-28T08:58:21;98015.78;;;21.72;65.78
50226;BME280;36113;50.742;6.432;2023-07-28T09:00:47;98073.50;;;21.93;66.81
50226;BME280;36113;50.742;6.432;2023-07-28T09:03:17;98046.16;;;21.87;67.12
50226;BME280;36113;50.742;6.432;2023-07-28T09:05:44;98099.78;;;22.41;66.11
50226;BME280;36113;50.742;6.432;2023-07-28T09:08:14;98068.25;;;22.26;65.52
50226;BME280;36113;50.742;6.432;2023-07-28T09:10:44;98093.69;;;22.55;64.75
50226;BME280;36113;50.742;6.432;2023-07-28T09:13:11;98107.66;;;22.62;64.93
50226;BME280;36113;50.742;6.432;2023-07-28T09:15:39;98097.50;;;22.47;65.64
50226;BME280;36113;50.742;6.432;2023-07-28T09:18:16;98097.50;;;22.47;65.01
50226;BME280;36113;50.742;6.432;2023-07-28T09:20:42;98087.59;;;22.69;64.89
50226;BME280;36113;50.742;6.432;2023-07-28T09:23:08;98107.09;;;23.22;64.94
50226;BME280;36113;50.742;6.432;2023-07-28T09:25:35;98108.28;;;22.98;63.72
50226;BME280;36113;50.742;6.432;2023-07-28T09:28:01;98100.34;;;22.97;64.27
50226;BME280;36113;50.742;6.432;2023-07-28T09:30:26;98110.69;;;23.23;63.96
50226;BME280;36113;50.742;6.432;2023-07-28T09:32:56;98098.81;;;23.26;63.14
50226;BME280;36113;50.742;6.432;2023-07-28T09:35:22;98099.25;;;23.01;62.79
50226;BME280;36113;50.742;6.432;2023-07-28T09:37:51;98085.50;;;22.62;62.86
50226;BME280;36113;50.742;6.432;2023-07-28T09:40:20;98105.75;;;22.89;62.76
50226;BME280;36113;50.742;6.432;2023-07-28T09:42:47;98090.50;;;23.26;63.49
50226;BME280;36113;50.742;6.432;2023-07-28T09:45:20;98094.75;;;23.46;61.81
50226;BME280;36113;50.742;6.432;2023-07-28T09:47:47;98099.31;;;23.62;61.57
50226;BME280;36113;50.742;6.432;2023-07-28T09:50:17;98066.38;;;23.57;62.24
50226;BME280;36113;50.742;6.432;2023-07-28T09:52:46;98099.78;;;23.94;62.07
50226;BME280;36113;50.742;6.432;2023-07-28T09:55:11;98093.66;;;23.81;61.29
50226;BME280;36113;50.742;6.432;2023-07-28T09:57:50;98107.34;;;23.67;61.43
50226;BME280;36113;50.742;6.432;2023-07-28T10:00:21;98106.81;;;23.58;61.11
50226;BME280;36113;50.742;6.432;2023-07-28T10:02:47;98107.03;;;23.45;62.05
50226;BME280;36113;50.742;6.432;2023-07-28T10:05:14;98103.41;;;23.41;62.35
50226;BME280;36113;50.742;6.432;2023-07-28T10:07:42;98110.84;;;23.33;61.86
50226;BME280;36113;50.742;6.432;2023-07-28T10:10:10;98102.63;;;23.41;62.03
50226;BME280;36113;50.742;6.432;2023-07-28T10:12:46;98109.22;;;23.59;61.54
50226;BME280;36113;50.742;6.432;2023-07-28T10:15:14;98070.91;;;23.42;60.90
50226;BME280;36113;50.742;6.432;2023-07-28T10:17:44;98060.63;;;23.42;61.40
50226;BME280;36113;50.742;6.432;2023-07-28T10:22:53;98112.75;;;23.86;60.06
50226;BME280;36113;50.742;6.432;2023-07-28T10:25:22;98060.19;;;23.70;59.77
50226;BME280;36113;50.742;6.432;2023-07-28T10:27:50;98121.22;;;24.31;58.26
50226;BME280;36113;50.742;6.432;2023-07-28T10:30:15;98127.50;;;24.24;58.42
50226;BME280;36113;50.742;6.432;2023-07-28T10:32:45;98099.09;;;24.04;58.80
50226;BME280;36113;50.742;6.432;2023-07-28T10:37:39;98124.38;;;23.65;59.08
50226;BME280;36113;50.742;6.432;2023-07-28T10:42:52;98130.81;;;23.46;60.09
50226;BME280;36113;50.742;6.432;2023-07-28T10:45:18;98137.97;;;23.47;60.34
50226;BME280;36113;50.742;6.432;2023-07-28T10:47:44;98131.47;;;23.63;60.28
50226;BME280;36113;50.742;6.432;2023-07-28T10:50:10;98132.03;;;23.49;60.00
50226;BME280;36113;50.742;6.432;2023-07-28T10:52:39;98135.25;;;23.51;60.00
50226;BME280;36113;50.742;6.432;2023-07-28T10:55:14;98143.69;;;23.31;60.63
50226;BME280;36113;50.742;6.432;2023-07-28T10:57:43;98070.28;;;22.99;60.76
50226;BME280;36113;50.742;6.432;2023-07-28T11:00:10;98122.75;;;23.64;60.68
50226;BME280;36113;50.742;6.432;2023-07-28T11:02:47;98126.91;;;23.78;60.02
50226;BME280;36113;50.742;6.432;2023-07-28T11:05:19;98136.16;;;23.85;60.00
50226;BME280;36113;50.742;6.432;2023-07-28T11:07:45;98101.94;;;23.78;59.71
50226;BME280;36113;50.742;6.432;2023-07-28T11:10:11;98116.53;;;24.01;59.42
50226;BME280;36113;50.742;6.432;2023-07-28T11:12:49;98126.47;;;24.40;59.21
50226;BME280;36113;50.742;6.432;2023-07-28T11:15:16;98104.44;;;24.54;59.26
50226;BME280;36113;50.742;6.432;2023-07-28T11:17:46;98114.88;;;24.64;58.60
50226;BME280;36113;50.742;6.432;2023-07-28T11:22:52;98087.31;;;24.48;57.03
50226;BME280;36113;50.742;6.432;2023-07-28T11:25:18;98117.81;;;24.86;57.11
50226;BME280;36113;50.742;6.432;2023-07-28T11:27:44;98115.97;;;25.01;55.60
50226;BME280;36113;50.742;6.432;2023-07-28T11:30:12;98098.69;;;24.77;56.94
50226;BME280;36113;50.742;6.432;2023-07-28T11:32:37;98099.19;;;24.90;56.70
50226;BME280;36113;50.742;6.432;2023-07-28T11:35:06;98122.50;;;25.19;56.69
50226;BME280;36113;50.742;6.432;2023-07-28T11:37:34;98101.28;;;25.04;56.58
50226;BME280;36113;50.742;6.432;2023-07-28T11:40:04;98104.44;;;24.98;56.28
50226;BME280;36113;50.742;6.432;2023-07-28T11:42:39;98116.00;;;25.04;56.12
50226;BME280;36113;50.742;6.432;2023-07-28T11:45:06;98127.06;;;24.97;56.70
50226;BME280;36113;50.742;6.432;2023-07-28T11:47:32;98135.06;;;24.57;56.41
50226;BME280;36113;50.742;6.432;2023-07-28T11:49:58;98115.63;;;24.27;56.68
50226;BME280;36113;50.742;6.432;2023-07-28T11:52:34;98129.53;;;24.27;56.83
50226;BME280;36113;50.742;6.432;2023-07-28T11:55:06;98110.53;;;23.99;58.17
50226;BME280;36113;50.742;6.432;2023-07-28T11:57:32;98122.34;;;24.23;58.13
50226;BME280;36113;50.742;6.432;2023-07-28T11:59:59;98089.75;;;24.20;58.14
50226;BME280;36113;50.742;6.432;2023-07-28T12:02:28;98116.97;;;24.41;58.03
50226;BME280;36113;50.742;6.432;2023-07-28T12:04:54;98119.41;;;24.46;57.69
50226;BME280;36113;50.742;6.432;2023-07-28T12:07:33;98057.56;;;24.15;56.93
50226;BME280;36113;50.742;6.432;2023-07-28T12:10:06;98088.53;;;24.51;58.05
50226;BME280;36113;50.742;6.432;2023-07-28T12:12:41;98100.34;;;24.85;57.30
50226;BME280;36113;50.742;6.432;2023-07-28T12:15:22;98120.22;;;25.32;56.83
50226;BME280;36113;50.742;6.432;2023-07-28T12:18:05;98115.84;;;25.31;55.03
50226;BME280;36113;50.742;6.432;2023-07-28T12:20:38;98095.97;;;25.29;55.45
50226;BME280;36113;50.742;6.432;2023-07-28T12:23:05;98113.41;;;25.26;55.24
50226;BME280;36113;50.742;6.432;2023-07-28T12:25:31;98110.50;;;25.15;56.14
50226;BME280;36113;50.742;6.432;2023-07-28T12:27:57;98111.81;;;25.25;55.99
50226;BME280;36113;50.742;6.432;2023-07-28T12:30:22;98120.47;;;25.16;55.97
50226;BME280;36113;50.742;6.432;2023-07-28T12:32:47;98118.59;;;24.83;57.02
50226;BME280;36113;50.742;6.432;2023-07-28T12:35:13;98112.97;;;24.38;58.08
50226;BME280;36113;50.742;6.432;2023-07-28T12:37:38;98143.28;;;24.16;61.02
50226;BME280;36113;50.742;6.432;2023-07-28T12:40:04;98145.44;;;23.70;63.63
50226;BME280;36113;50.742;6.432;2023-07-28T12:42:31;98142.75;;;23.24;65.52
50226;BME280;36113;50.742;6.432;2023-07-28T12:44:56;98118.78;;;22.89;67.50
50226;BME280;36113;50.742;6.432;2023-07-28T12:47:22;98146.25;;;22.98;66.86
50226;BME280;36113;50.742;6.432;2023-07-28T12:49:47;98148.91;;;22.90;67.37
50226;BME280;36113;50.742;6.432;2023-07-28T12:52:13;98146.78;;;23.03;67.62
50226;BME280;36113;50.742;6.432;2023-07-28T12:54:38;98158.34;;;23.32;67.08
50226;BME280;36113;50.742;6.432;2023-07-28T12:57:04;98156.69;;;23.54;65.67
50226;BME280;36113;50.742;6.432;2023-07-28T12:59:32;98138.84;;;23.78;65.51
50226;BME280;36113;50.742;6.432;2023-07-28T13:01:58;98134.13;;;23.82;64.43
50226;BME280;36113;50.742;6.432;2023-07-28T13:04:23;98131.72;;;23.81;65.07
50226;BME280;36113;50.742;6.432;2023-07-28T13:06:49;98089.22;;;23.46;64.02
50226;BME280;36113;50.742;6.432;2023-07-28T13:09:14;98126.72;;;23.63;64.75